sensor_id;sensor_type;location;lat;lon;timestamp;pressure;altitude;pressure_sealevel;temperature;humidity
13836;BME280;6988;52.614;13.500;2023-02-22T00:03:38;54707.31;;;-143.77;76.04
13836;BME280;6988;52.614;13.500;2023-02-22T00:08:33;54736.06;;;-143.77;75.95
13836;BME280;6988;52.614;13.500;2023-02-22T00:13:26;54727.84;;;-143.77;76.01
13836;BME280;6988;52.614;13.500;2023-02-22T00:18:19;54740.16;;;-143.77;76.28
13836;BME280;6988;52.614;13.500;2023-02-22T00:23:18;54736.06;;;-143.77;76.47
13836;BME280;6988;52.614;13.500;2023-02-22T00:28:11;54748.38;;;-143.77;76.17
13836;BME280;6988;52.614;13.500;2023-02-22T00:33:04;54754.53;;;-143.77;76.89
13836;BME280;6988;52.614;13.500;2023-02-22T00:38:00;54748.38;;;-143.77;76.87
13836;BME280;6988;52.614;13.500;2023-02-22T00:42:53;54758.63;;;-143.77;77.24
13836;BME280;6988;52.614;13.500;2023-02-22T00:47:46;54752.47;;;-143.77;77.28
13836;BME280;6988;52.614;13.500;2023-02-22T00:53:27;54719.63;;;-143.77;77.55
13836;BME280;6988;52.614;13.500;2023-02-22T01:04:52;54750.41;;;-143.77;77.94
13836;BME280;6988;52.614;13.500;2023-02-22T01:09:44;54736.06;;;-143.77;77.86
13836;BME280;6988;52.614;13.500;2023-02-22T01:14:35;54717.59;;;-143.77;77.53
13836;BME280;6988;52.614;13.500;2023-02-22T01:19:27;54721.69;;;-143.77;77.62
13836;BME280;6988;52.614;13.500;2023-02-22T01:24:21;54723.75;;;-143.77;77.84
13836;BME280;6988;52.614;13.500;2023-02-22T01:29:13;54736.06;;;-143.77;77.95
13836;BME280;6988;52.614;13.500;2023-02-22T01:34:06;54709.38;;;-143.77;77.95
13836;BME280;6988;52.614;13.500;2023-02-22T01:38:59;54746.31;;;-143.77;77.92
13836;BME280;6988;52.614;13.500;2023-02-22T01:43:53;54742.22;;;-143.77;78.06
13836;BME280;6988;52.614;13.500;2023-02-22T01:48:50;54797.63;;;-143.77;78.34
13836;BME280;6988;52.614;13.500;2023-02-22T01:53:49;54756.56;;;-143.77;78.42
13836;BME280;6988;52.614;13.500;2023-02-22T01:58:46;54770.94;;;-143.77;78.87
13836;BME280;6988;52.614;13.500;2023-02-22T02:03:44;54793.50;;;-143.77;78.77
13836;BME280;6988;52.614;13.500;2023-02-22T02:08:50;54766.84;;;-143.77;78.70
13836;BME280;6988;52.614;13.500;2023-02-22T02:13:48;54770.94;;;-143.77;78.39
13836;BME280;6988;52.614;13.500;2023-02-22T02:18:40;54770.94;;;-143.77;78.81
13836;BME280;6988;52.614;13.500;2023-02-22T02:24:28;54770.94;;;-143.77;79.50
13836;BME280;6988;52.614;13.500;2023-02-22T02:35:41;54760.69;;;-143.77;79.32
13836;BME280;6988;52.614;13.500;2023-02-22T02:40:43;54773.00;;;-143.77;79.27
13836;BME280;6988;52.614;13.500;2023-02-22T02:45:46;54764.78;;;-143.77;79.62
13836;BME280;6988;52.614;13.500;2023-02-22T02:50:45;54787.34;;;-143.77;79.79
13836;BME280;6988;52.614;13.500;2023-02-22T02:55:38;54754.53;;;-143.77;79.56
13836;BME280;6988;52.614;13.500;2023-02-22T03:00:36;54762.72;;;-143.77;79.45
13836;BME280;6988;52.614;13.500;2023-02-22T03:05:52;54795.56;;;-143.77;80.10
13836;BME280;6988;52.614;13.500;2023-02-22T03:10:58;54754.53;;;-143.77;79.95
13836;BME280;6988;52.614;13.500;2023-02-22T03:16:09;54762.72;;;-143.77;79.50
13836;BME280;6988;52.614;13.500;2023-02-22T03:21:14;54764.78;;;-143.77;79.18
13836;BME280;6988;52.614;13.500;2023-02-22T03:26:15;54770.94;;;-143.77;79.76
13836;BME280;6988;52.614;13.500;2023-02-22T03:31:21;54738.09;;;-143.77;80.16
13836;BME280;6988;52.614;13.500;2023-02-22T03:36:24;54781.19;;;-143.77;80.39
13836;BME280;6988;52.614;13.500;2023-02-22T03:41:21;54775.03;;;-143.77;81.18
13836;BME280;6988;52.614;13.500;2023-02-22T03:46:16;54789.41;;;-143.77;81.12
13836;BME280;6988;52.614;13.500;2023-02-22T03:51:12;54760.69;;;-143.77;80.96
13836;BME280;6988;52.614;13.500;2023-02-22T03:56:13;54801.72;;;-143.77;81.52
13836;BME280;6988;52.614;13.500;2023-02-22T04:01:10;54746.31;;;-143.77;81.25
13836;BME280;6988;52.614;13.500;2023-02-22T04:06:02;54803.78;;;-143.77;81.58
13836;BME280;6988;52.614;13.500;2023-02-22T04:10:54;54758.63;;;-143.77;81.32
13836;BME280;6988;52.614;13.500;2023-02-22T04:15:54;54764.78;;;-143.77;81.44
13836;BME280;6988;52.614;13.500;2023-02-22T04:20:46;54773.00;;;-143.77;81.13
13836;BME280;6988;52.614;13.500;2023-02-22T04:25:57;54797.63;;;-143.77;81.55
13836;BME280;6988;52.614;13.500;2023-02-22T04:30:50;54795.56;;;-143.77;81.40
13836;BME280;6988;52.614;13.500;2023-02-22T04:35:43;54777.09;;;-143.77;81.99
13836;BME280;6988;52.614;13.500;2023-02-22T04:40:35;54775.03;;;-143.77;82.14
13836;BME280;6988;52.614;13.500;2023-02-22T04:45:27;54768.88;;;-143.77;81.91
13836;BME280;6988;52.614;13.500;2023-02-22T04:50:24;54791.47;;;-143.77;81.57
13836;BME280;6988;52.614;13.500;2023-02-22T04:55:16;54791.47;;;-143.77;81.81
13836;BME280;6988;52.614;13.500;2023-02-22T05:00:10;54791.47;;;-143.77;81.59
13836;BME280;6988;52.614;13.500;2023-02-22T05:05:02;54803.78;;;-143.77;81.68
13836;BME280;6988;52.614;13.500;2023-02-22T05:09:55;54795.56;;;-143.77;82.19
13836;BME280;6988;52.614;13.500;2023-02-22T05:14:47;54779.16;;;-143.77;82.32
13836;BME280;6988;52.614;13.500;2023-02-22T05:19:39;54758.63;;;-143.77;82.83
13836;BME280;6988;52.614;13.500;2023-02-22T05:24:31;54814.03;;;-143.77;82.56
13836;BME280;6988;52.614;13.500;2023-02-22T05:29:25;54775.03;;;-143.77;82.01
13836;BME280;6988;52.614;13.500;2023-02-22T05:34:17;54748.38;;;-143.77;81.92
13836;BME280;6988;52.614;13.500;2023-02-22T05:39:09;54777.09;;;-143.77;81.72
13836;BME280;6988;52.614;13.500;2023-02-22T05:44:01;54799.66;;;-143.77;82.59
13836;BME280;6988;52.614;13.500;2023-02-22T05:48:55;54787.34;;;-143.77;82.24
13836;BME280;6988;52.614;13.500;2023-02-22T05:53:46;54803.78;;;-143.77;82.69
13836;BME280;6988;52.614;13.500;2023-02-22T05:58:41;54811.97;;;-143.77;82.67
13836;BME280;6988;52.614;13.500;2023-02-22T06:03:33;54789.41;;;-143.77;82.39
13836;BME280;6988;52.614;13.500;2023-02-22T06:08:26;54818.13;;;-143.77;82.94
13836;BME280;6988;52.614;13.500;2023-02-22T06:13:18;54803.78;;;-143.77;82.71
13836;BME280;6988;52.614;13.500;2023-02-22T06:24:43;54801.72;;;-143.77;83.12
13836;BME280;6988;52.614;13.500;2023-02-22T06:29:36;54818.13;;;-143.77;83.62
13836;BME280;6988;52.614;13.500;2023-02-22T06:34:29;54770.94;;;-143.77;83.65
13836;BME280;6988;52.614;13.500;2023-02-22T06:39:21;54801.72;;;-143.77;83.62
13836;BME280;6988;52.614;13.500;2023-02-22T06:44:16;54793.50;;;-143.77;84.63
13836;BME280;6988;52.614;13.500;2023-02-22T06:49:08;54814.03;;;-143.77;84.46
13836;BME280;6988;52.614;13.500;2023-02-22T06:54:00;54789.41;;;-143.77;84.84
13836;BME280;6988;52.614;13.500;2023-02-22T06:58:51;54820.19;;;-143.77;85.45
13836;BME280;6988;52.614;13.500;2023-02-22T07:03:45;54809.94;;;-143.77;85.62
13836;BME280;6988;52.614;13.500;2023-02-22T07:08:37;54754.53;;;-143.77;85.86
13836;BME280;6988;52.614;13.500;2023-02-22T07:13:29;54787.34;;;-143.77;85.77
13836;BME280;6988;52.614;13.500;2023-02-22T07:18:20;54738.09;;;-143.77;85.48
13836;BME280;6988;52.614;13.500;2023-02-22T07:23:17;54781.19;;;-143.77;86.53
13836;BME280;6988;52.614;13.500;2023-02-22T07:28:10;54758.63;;;-143.77;86.18
13836;BME280;6988;52.614;13.500;2023-02-22T07:33:05;54754.53;;;-143.77;85.83
13836;BME280;6988;52.614;13.500;2023-02-22T07:37:57;54709.38;;;-143.77;85.91
13836;BME280;6988;52.614;13.500;2023-02-22T07:42:53;54734.00;;;-143.77;85.45
13836;BME280;6988;52.614;13.500;2023-02-22T07:47:46;54703.22;;;-143.77;85.59
13836;BME280;6988;52.614;13.500;2023-02-22T07:52:37;54736.06;;;-143.77;85.86
13836;BME280;6988;52.614;13.500;2023-02-22T07:57:29;54725.78;;;-143.77;86.34
13836;BME280;6988;52.614;13.500;2023-02-22T08:02:24;54752.47;;;-143.77;86.47
13836;BME280;6988;52.614;13.500;2023-02-22T08:07:16;54695.00;;;-143.77;85.66
13836;BME280;6988;52.614;13.500;2023-02-22T08:12:08;54692.97;;;-143.77;85.10
13836;BME280;6988;52.614;13.500;2023-02-22T08:16:59;54705.28;;;-143.77;84.77
13836;BME280;6988;52.614;13.500;2023-02-22T08:21:52;54742.22;;;-143.77;84.63
13836;BME280;6988;52.614;13.500;2023-02-22T08:26:45;54713.47;;;-143.77;85.22
13836;BME280;6988;52.614;13.500;2023-02-22T08:31:36;54709.38;;;-143.77;85.47
13836;BME280;6988;52.614;13.500;2023-02-22T08:36:28;54721.69;;;-143.77;85.81
13836;BME280;6988;52.614;13.500;2023-02-22T08:41:23;54709.38;;;-143.77;85.62
13836;BME280;6988;52.614;13.500;2023-02-22T08:46:15;54705.28;;;-143.77;85.00
13836;BME280;6988;52.614;13.500;2023-02-22T08:51:07;54715.53;;;-143.77;84.57
13836;BME280;6988;52.614;13.500;2023-02-22T08:55:59;54711.44;;;-143.77;84.13
13836;BME280;6988;52.614;13.500;2023-02-22T09:00:52;54742.22;;;-143.77;84.20
13836;BME280;6988;52.614;13.500;2023-02-22T09:05:44;54684.75;;;-143.77;83.17
13836;BME280;6988;52.614;13.500;2023-02-22T09:10:36;54684.75;;;-143.77;82.10
13836;BME280;6988;52.614;13.500;2023-02-22T09:15:29;54688.84;;;-143.77;82.45
13836;BME280;6988;52.614;13.500;2023-02-22T09:20:24;54686.81;;;-143.77;82.00
13836;BME280;6988;52.614;13.500;2023-02-22T09:25:17;54658.06;;;-143.77;80.20
13836;BME280;6988;52.614;13.500;2023-02-22T09:30:17;54643.72;;;-143.77;79.05
13836;BME280;6988;52.614;13.500;2023-02-22T09:35:09;54666.28;;;-143.77;78.56
13836;BME280;6988;52.614;13.500;2023-02-22T09:40:05;54621.13;;;-143.77;78.30
13836;BME280;6988;52.614;13.500;2023-02-22T09:45:06;54680.66;;;-143.77;78.24
13836;BME280;6988;52.614;13.500;2023-02-22T09:50:07;54629.34;;;-143.77;77.77
13836;BME280;6988;52.614;13.500;2023-02-22T09:55:19;54645.75;;;-143.77;77.35
13836;BME280;6988;52.614;13.500;2023-02-22T10:00:20;54635.50;;;-143.77;76.99
13836;BME280;6988;52.614;13.500;2023-02-22T10:05:20;54643.72;;;-143.77;75.87
13836;BME280;6988;52.614;13.500;2023-02-22T10:10:17;54623.19;;;-143.77;75.80
13836;BME280;6988;52.614;13.500;2023-02-22T10:15:42;54635.50;;;-143.77;76.12
13836;BME280;6988;52.614;13.500;2023-02-22T10:20:49;54647.81;;;-143.77;75.68
13836;BME280;6988;52.614;13.500;2023-02-22T10:25:52;54614.97;;;-143.77;75.12
13836;BME280;6988;52.614;13.500;2023-02-22T10:30:51;54586.25;;;-143.77;74.34
13836;BME280;6988;52.614;13.500;2023-02-22T10:35:45;54623.19;;;-143.77;74.09
13836;BME280;6988;52.614;13.500;2023-02-22T10:40:38;54573.94;;;-143.77;72.35
13836;BME280;6988;52.614;13.500;2023-02-22T10:45:33;54614.97;;;-143.77;72.92
13836;BME280;6988;52.614;13.500;2023-02-22T10:50:29;54670.38;;;-143.77;71.53
13836;BME280;6988;52.614;13.500;2023-02-22T10:55:21;54576.00;;;-143.77;70.35
13836;BME280;6988;52.614;13.500;2023-02-22T11:00:18;54586.25;;;-143.77;70.40
13836;BME280;6988;52.614;13.500;2023-02-22T11:05:33;54541.09;;;-143.77;69.80
13836;BME280;6988;52.614;13.500;2023-02-22T11:10:31;54553.41;;;-143.77;69.12
13836;BME280;6988;52.614;13.500;2023-02-22T11:15:28;54557.53;;;-143.77;69.16
13836;BME280;6988;52.614;13.500;2023-02-22T11:20:24;54565.72;;;-143.77;69.03
13836;BME280;6988;52.614;13.500;2023-02-22T11:25:24;54543.16;;;-143.77;69.42
13836;BME280;6988;52.614;13.500;2023-02-22T11:30:27;54596.50;;;-143.77;67.87
13836;BME280;6988;52.614;13.500;2023-02-22T11:35:34;54559.56;;;-143.77;68.96
13836;BME280;6988;52.614;13.500;2023-02-22T11:40:28;54567.78;;;-143.77;66.47
13836;BME280;6988;52.614;13.500;2023-02-22T11:45:21;54543.16;;;-143.77;68.58
13836;BME280;6988;52.614;13.500;2023-02-22T11:50:24;54586.25;;;-143.77;67.31
13836;BME280;6988;52.614;13.500;2023-02-22T11:55:28;54557.53;;;-143.77;67.46
13836;BME280;6988;52.614;13.500;2023-02-22T12:00:32;54512.38;;;-143.77;67.25
13836;BME280;6988;52.614;13.500;2023-02-22T12:05:46;54576.00;;;-143.77;65.79
13836;BME280;6988;52.614;13.500;2023-02-22T12:11:04;54553.41;;;-143.77;66.36
13836;BME280;6988;52.614;13.500;2023-02-22T12:16:13;54522.63;;;-143.77;65.48
13836;BME280;6988;52.614;13.500;2023-02-22T12:21:15;54520.59;;;-143.77;66.09
13836;BME280;6988;52.614;13.500;2023-02-22T12:26:14;54530.84;;;-143.77;65.37
13836;BME280;6988;52.614;13.500;2023-02-22T12:31:17;54526.75;;;-143.77;65.61
13836;BME280;6988;52.614;13.500;2023-02-22T12:36:15;54524.69;;;-143.77;66.84
13836;BME280;6988;52.614;13.500;2023-02-22T12:41:19;54545.22;;;-143.77;66.82
13836;BME280;6988;52.614;13.500;2023-02-22T12:46:22;54578.03;;;-143.77;67.55
13836;BME280;6988;52.614;13.500;2023-02-22T12:51:27;54543.16;;;-143.77;67.81
13836;BME280;6988;52.614;13.500;2023-02-22T12:56:29;54565.72;;;-143.77;66.26
13836;BME280;6988;52.614;13.500;2023-02-22T13:01:31;54528.78;;;-143.77;67.74
13836;BME280;6988;52.614;13.500;2023-02-22T13:06:48;54553.41;;;-143.77;67.72
13836;BME280;6988;52.614;13.500;2023-02-22T13:11:55;54526.75;;;-143.77;68.08
13836;BME280;6988;52.614;13.500;2023-02-22T13:16:58;54559.56;;;-143.77;67.58
13836;BME280;6988;52.614;13.500;2023-02-22T13:21:57;54555.47;;;-143.77;66.43
13836;BME280;6988;52.614;13.500;2023-02-22T13:27:03;54582.16;;;-143.77;66.58
13836;BME280;6988;52.614;13.500;2023-02-22T13:32:13;54508.28;;;-143.77;67.04
13836;BME280;6988;52.614;13.500;2023-02-22T13:37:34;54549.31;;;-143.77;67.52
13836;BME280;6988;52.614;13.500;2023-02-22T13:43:00;54537.00;;;-143.77;66.58
13836;BME280;6988;52.614;13.500;2023-02-22T13:48:23;54547.25;;;-143.77;67.23
13836;BME280;6988;52.614;13.500;2023-02-22T13:53:25;54545.22;;;-143.77;66.64
13836;BME280;6988;52.614;13.500;2023-02-22T13:58:19;54551.38;;;-143.77;65.89
13836;BME280;6988;52.614;13.500;2023-02-22T14:03:33;54541.09;;;-143.77;66.70
13836;BME280;6988;52.614;13.500;2023-02-22T14:08:40;54549.31;;;-143.77;66.25
13836;BME280;6988;52.614;13.500;2023-02-22T14:14:09;54532.91;;;-143.77;66.75
13836;BME280;6988;52.614;13.500;2023-02-22T14:19:10;54567.78;;;-143.77;66.67
13836;BME280;6988;52.614;13.500;2023-02-22T14:24:11;54532.91;;;-143.77;67.39
13836;BME280;6988;52.614;13.500;2023-02-22T14:29:16;54559.56;;;-143.77;67.43
13836;BME280;6988;52.614;13.500;2023-02-22T14:34:11;54584.19;;;-143.77;67.54
13836;BME280;6988;52.614;13.500;2023-02-22T14:39:17;54551.38;;;-143.77;66.93
13836;BME280;6988;52.614;13.500;2023-02-22T14:44:10;54561.63;;;-143.77;67.39
13836;BME280;6988;52.614;13.500;2023-02-22T14:49:08;54573.94;;;-143.77;67.18
13836;BME280;6988;52.614;13.500;2023-02-22T14:54:17;54565.72;;;-143.77;66.38
13836;BME280;6988;52.614;13.500;2023-02-22T14:59:19;54576.00;;;-143.77;67.13
13836;BME280;6988;52.614;13.500;2023-02-22T15:04:22;54569.84;;;-143.77;67.46
13836;BME280;6988;52.614;13.500;2023-02-22T15:09:18;54559.56;;;-143.77;68.18
13836;BME280;6988;52.614;13.500;2023-02-22T15:14:17;54573.94;;;-143.77;68.67
13836;BME280;6988;52.614;13.500;2023-02-22T15:19:10;54561.63;;;-143.77;69.04
13836;BME280;6988;52.614;13.500;2023-02-22T15:24:05;54590.34;;;-143.77;68.76
13836;BME280;6988;52.614;13.500;2023-02-22T15:28:59;54549.31;;;-143.77;69.11
13836;BME280;6988;52.614;13.500;2023-02-22T15:33:52;54614.97;;;-143.77;68.78
13836;BME280;6988;52.614;13.500;2023-02-22T15:38:49;54586.25;;;-143.77;69.81
13836;BME280;6988;52.614;13.500;2023-02-22T15:43:43;54584.19;;;-143.77;68.99
13836;BME280;6988;52.614;13.500;2023-02-22T15:48:34;54588.31;;;-143.77;68.84
13836;BME280;6988;52.614;13.500;2023-02-22T15:53:37;54606.78;;;-143.77;69.67
13836;BME280;6988;52.614;13.500;2023-02-22T15:58:31;54612.94;;;-143.77;70.21
13836;BME280;6988;52.614;13.500;2023-02-22T16:03:24;54631.41;;;-143.77;70.88
13836;BME280;6988;52.614;13.500;2023-02-22T16:08:21;54590.34;;;-143.77;70.27
13836;BME280;6988;52.614;13.500;2023-02-22T16:13:20;54627.28;;;-143.77;70.73
13836;BME280;6988;52.614;13.500;2023-02-22T16:18:25;54623.19;;;-143.77;71.19
13836;BME280;6988;52.614;13.500;2023-02-22T16:23:23;54643.72;;;-143.77;71.42
13836;BME280;6988;52.614;13.500;2023-02-22T16:28:27;54627.28;;;-143.77;71.15
13836;BME280;6988;52.614;13.500;2023-02-22T16:33:24;54623.19;;;-143.77;71.02
13836;BME280;6988;52.614;13.500;2023-02-22T16:38:19;54571.88;;;-143.77;71.24
13836;BME280;6988;52.614;13.500;2023-02-22T16:43:15;54651.91;;;-143.77;71.43
13836;BME280;6988;52.614;13.500;2023-02-22T16:48:14;54631.41;;;-143.77;71.42
13836;BME280;6988;52.614;13.500;2023-02-22T16:53:09;54658.06;;;-143.77;71.77
13836;BME280;6988;52.614;13.500;2023-02-22T16:58:02;54653.97;;;-143.77;71.52
13836;BME280;6988;52.614;13.500;2023-02-22T17:02:54;54680.66;;;-143.77;72.13
13836;BME280;6988;52.614;13.500;2023-02-22T17:07:46;54668.34;;;-143.77;72.06
13836;BME280;6988;52.614;13.500;2023-02-22T17:12:39;54653.97;;;-143.77;72.19
13836;BME280;6988;52.614;13.500;2023-02-22T17:17:33;54676.53;;;-143.77;71.88
13836;BME280;6988;52.614;13.500;2023-02-22T17:22:25;54695.00;;;-143.77;72.59
13836;BME280;6988;52.614;13.500;2023-02-22T17:27:16;54676.53;;;-143.77;72.64
13836;BME280;6988;52.614;13.500;2023-02-22T17:32:11;54692.97;;;-143.77;72.99
13836;BME280;6988;52.614;13.500;2023-02-22T17:37:02;54660.13;;;-143.77;73.57
13836;BME280;6988;52.614;13.500;2023-02-22T17:41:55;54715.53;;;-143.77;73.79
13836;BME280;6988;52.614;13.500;2023-02-22T17:46:47;54709.38;;;-143.77;74.49
13836;BME280;6988;52.614;13.500;2023-02-22T17:51:40;54707.31;;;-143.77;74.49
13836;BME280;6988;52.614;13.500;2023-02-22T17:56:32;54692.97;;;-143.77;74.97
13836;BME280;6988;52.614;13.500;2023-02-22T18:01:26;54738.09;;;-143.77;75.13
13836;BME280;6988;52.614;13.500;2023-02-22T18:06:20;54717.59;;;-143.77;75.21
13836;BME280;6988;52.614;13.500;2023-02-22T18:11:14;54684.75;;;-143.77;75.27
13836;BME280;6988;52.614;13.500;2023-02-22T18:16:06;54734.00;;;-143.77;75.57
13836;BME280;6988;52.614;13.500;2023-02-22T18:20:59;54723.75;;;-143.77;74.94
13836;BME280;6988;52.614;13.500;2023-02-22T18:25:51;54705.28;;;-143.77;75.88
13836;BME280;6988;52.614;13.500;2023-02-22T18:30:44;54758.63;;;-143.77;77.19
13836;BME280;6988;52.614;13.500;2023-02-22T18:35:37;54779.16;;;-143.77;75.74
13836;BME280;6988;52.614;13.500;2023-02-22T18:40:29;54783.25;;;-143.77;77.33
13836;BME280;6988;52.614;13.500;2023-02-22T18:45:21;54758.63;;;-143.77;78.19
13836;BME280;6988;52.614;13.500;2023-02-22T18:50:15;54785.31;;;-143.77;77.02
13836;BME280;6988;52.614;13.500;2023-02-22T18:55:07;54766.84;;;-143.77;77.40
13836;BME280;6988;52.614;13.500;2023-02-22T18:59:59;54775.03;;;-143.77;78.30
13836;BME280;6988;52.614;13.500;2023-02-22T19:04:50;54773.00;;;-143.77;78.18
13836;BME280;6988;52.614;13.500;2023-02-22T19:09:44;54768.88;;;-143.77;77.60
13836;BME280;6988;52.614;13.500;2023-02-22T19:14:40;54811.97;;;-143.77;78.08
13836;BME280;6988;52.614;13.500;2023-02-22T19:19:33;54791.47;;;-143.77;78.59
13836;BME280;6988;52.614;13.500;2023-02-22T19:24:25;54787.34;;;-143.77;78.03
13836;BME280;6988;52.614;13.500;2023-02-22T19:29:19;54785.31;;;-143.77;77.58
13836;BME280;6988;52.614;13.500;2023-02-22T19:34:12;54787.34;;;-143.77;78.19
13836;BME280;6988;52.614;13.500;2023-02-22T19:39:05;54811.97;;;-143.77;78.05
13836;BME280;6988;52.614;13.500;2023-02-22T19:44:00;54770.94;;;-143.77;78.39
13836;BME280;6988;52.614;13.500;2023-02-22T19:48:54;54850.97;;;-143.77;78.31
13836;BME280;6988;52.614;13.500;2023-02-22T19:53:46;54795.56;;;-143.77;78.59
13836;BME280;6988;52.614;13.500;2023-02-22T19:58:42;54811.97;;;-143.77;79.25
13836;BME280;6988;52.614;13.500;2023-02-22T20:03:34;54793.50;;;-143.77;78.48
13836;BME280;6988;52.614;13.500;2023-02-22T20:08:29;54746.31;;;-143.77;78.60
13836;BME280;6988;52.614;13.500;2023-02-22T20:13:21;54824.28;;;-143.77;78.11
13836;BME280;6988;52.614;13.500;2023-02-22T20:18:12;54834.56;;;-143.77;77.19
13836;BME280;6988;52.614;13.500;2023-02-22T20:23:04;54795.56;;;-143.77;76.23
13836;BME280;6988;52.614;13.500;2023-02-22T20:27:57;54781.19;;;-143.77;76.16
13836;BME280;6988;52.614;13.500;2023-02-22T20:32:50;54770.94;;;-143.77;75.60
13836;BME280;6988;52.614;13.500;2023-02-22T20:37:42;54760.69;;;-143.77;75.59
13836;BME280;6988;52.614;13.500;2023-02-22T20:42:34;54797.63;;;-143.77;75.55
13836;BME280;6988;52.614;13.500;2023-02-22T20:47:27;54805.81;;;-143.77;75.93
13836;BME280;6988;52.614;13.500;2023-02-22T20:52:18;54764.78;;;-143.77;75.29
13836;BME280;6988;52.614;13.500;2023-02-22T20:57:10;54775.03;;;-143.77;75.81
13836;BME280;6988;52.614;13.500;2023-02-22T21:02:02;54783.25;;;-143.77;76.12
13836;BME280;6988;52.614;13.500;2023-02-22T21:06:55;54853.03;;;-143.77;76.61
13836;BME280;6988;52.614;13.500;2023-02-22T21:11:47;54779.16;;;-143.77;76.60
13836;BME280;6988;52.614;13.500;2023-02-22T21:16:39;54799.66;;;-143.77;76.43
13836;BME280;6988;52.614;13.500;2023-02-22T21:21:32;54803.78;;;-143.77;76.34
13836;BME280;6988;52.614;13.500;2023-02-22T21:26:27;54799.66;;;-143.77;76.76
13836;BME280;6988;52.614;13.500;2023-02-22T21:31:22;54770.94;;;-143.77;76.11
13836;BME280;6988;52.614;13.500;2023-02-22T21:36:14;54779.16;;;-143.77;76.90
13836;BME280;6988;52.614;13.500;2023-02-22T21:41:06;54775.03;;;-143.77;77.59
13836;BME280;6988;52.614;13.500;2023-02-22T21:46:02;54795.56;;;-143.77;77.67
13836;BME280;6988;52.614;13.500;2023-02-22T21:50:54;54773.00;;;-143.77;77.14
13836;BME280;6988;52.614;13.500;2023-02-22T21:55:45;54781.19;;;-143.77;77.42
13836;BME280;6988;52.614;13.500;2023-02-22T22:00:37;54799.66;;;-143.77;77.46
13836;BME280;6988;52.614;13.500;2023-02-22T22:05:37;54805.81;;;-143.77;77.16
13836;BME280;6988;52.614;13.500;2023-02-22T22:10:29;54787.34;;;-143.77;77.59
13836;BME280;6988;52.614;13.500;2023-02-22T22:15:22;54816.09;;;-143.77;77.87
13836;BME280;6988;52.614;13.500;2023-02-22T22:20:15;54799.66;;;-143.77;78.41
13836;BME280;6988;52.614;13.500;2023-02-22T22:25:09;54809.94;;;-143.77;78.51
13836;BME280;6988;52.614;13.500;2023-02-22T22:30:01;54822.25;;;-143.77;78.94
13836;BME280;6988;52.614;13.500;2023-02-22T22:34:54;54787.34;;;-143.77;78.85
13836;BME280;6988;52.614;13.500;2023-02-22T22:39:48;54793.50;;;-143.77;79.33
13836;BME280;6988;52.614;13.500;2023-02-22T22:44:41;54807.88;;;-143.77;79.06
13836;BME280;6988;52.614;13.500;2023-02-22T23:04:50;54848.91;;;-143.77;81.32
13836;BME280;6988;52.614;13.500;2023-02-22T23:09:42;54830.44;;;-143.77;80.97
13836;BME280;6988;52.614;13.500;2023-02-22T23:14:37;54801.72;;;-143.77;80.68
13836;BME280;6988;52.614;13.500;2023-02-22T23:19:35;54842.75;;;-143.77;80.32
13836;BME280;6988;52.614;13.500;2023-02-22T23:24:28;54807.88;;;-143.77;80.19
13836;BME280;6988;52.614;13.500;2023-02-22T23:29:21;54811.97;;;-143.77;79.96
13836;BME280;6988;52.614;13.500;2023-02-22T23:34:14;54828.41;;;-143.77;79.97
13836;BME280;6988;52.614;13.500;2023-02-22T23:39:06;54873.53;;;-143.77;79.58
13836;BME280;6988;52.614;13.500;2023-02-22T23:43:59;54814.03;;;-143.77;79.64
13836;BME280;6988;52.614;13.500;2023-02-22T23:48:53;54834.56;;;-143.77;79.57
13836;BME280;6988;52.614;13.500;2023-02-22T23:53:53;54811.97;;;-143.77;80.13
13836;BME280;6988;52.614;13.500;2023-02-22T23:58:47;54844.81;;;-143.77;80.15
